Dades meteomassalio
Diari Summary for Gener 14, 2017 Units:  Metric    English   Both
« Previous Day
Next Day »
Diari Semanal Mensual Anual Personalitzat
  Maxima: Minima: Mijana:
Temperatura: -17.8 °C -16 °C -14.9 °C
Rosada: -17.8 °C -18.3 °C -17.6 °C
Humitat: Humidity % 53 % 72 %
Velocitat del vent: 0 km/h 15 km/h 51.5 km/h
Racha vent: 0 km/h - -
Vent:- - NW
Pressio: 0 hPa 34669.3 hPa -
Pluja: 0 mm    
Historical Graphs
 
 
Tabular Data for Gener 14, 2017
Time Temperature Dew Point Pressure Wind Wind Speed Wind Gust Humidity Rainfall Rate (Hourly) solar Conditions
-17.8 °C -17.8 °C 0 hPa Calm     Humidity % 0 mm SolarRadiationWatts/m^2 W/m2 Conditions
00:02 -15.5 °C -17.3 °C 34682.8 hPa WNW 32.8 km/h 32.8 km/h 80 % 0 mm 0.0 W/m2 CLR
00:07 -15.6 °C -17.3 °C 34682.8 hPa NW 35.7 km/h 35.7 km/h 80 % 0 mm 0.0 W/m2 CLR
00:12 -15.6 °C -17.3 °C 34669.3 hPa NW 32.8 km/h 32.8 km/h 80 % 0 mm 0.0 W/m2 CLR
00:17 -15.6 °C -17.3 °C 34669.3 hPa NW 38.8 km/h 38.8 km/h 80 % 0 mm 0.0 W/m2 CLR
00:22 -15.6 °C -17.3 °C 34669.3 hPa NW 35.7 km/h 35.7 km/h 80 % 0 mm 0.0 W/m2 CLR
00:27 -15.6 °C -17.3 °C 34669.3 hPa WNW 29.8 km/h 29.8 km/h 80 % 0 mm 0.0 W/m2 CLR
00:32 -15.6 °C -17.3 °C 34669.3 hPa WNW 32.8 km/h 32.8 km/h 80 % 0 mm 0.0 W/m2 CLR
00:37 -15.6 °C -17.3 °C 34669.3 hPa WNW 35.7 km/h 35.7 km/h 80 % 0 mm 0.0 W/m2 CLR
00:42 -15.6 °C -17.3 °C 34669.3 hPa NW 29.8 km/h 29.8 km/h 80 % 0 mm 0.0 W/m2 CLR
00:47 -15.5 °C -17.3 °C 34669.3 hPa NW 41.7 km/h 41.7 km/h 80 % 0 mm 0.0 W/m2 CLR
00:52 -15.5 °C -17.3 °C 34669.3 hPa NW 32.8 km/h 32.8 km/h 80 % 0 mm 0.0 W/m2 CLR
00:57 -15.5 °C -17.3 °C 34682.8 hPa NW 35.7 km/h 35.7 km/h 80 % 0 mm 0.0 W/m2 CLR
01:02 -15.6 °C -17.3 °C 34669.3 hPa NW 35.7 km/h 35.7 km/h 80 % 0 mm 0.0 W/m2 CLR
01:07 -15.6 °C -17.3 °C 34669.3 hPa NW 32.8 km/h 33.2 km/h 80 % 0 mm 0.0 W/m2 CLR
01:12 -15.6 °C -17.3 °C 34669.3 hPa NW 29.8 km/h 29.8 km/h 80 % 0 mm 0.0 W/m2 CLR
01:17 -15.6 °C -17.3 °C 34682.8 hPa NW 38.8 km/h 38.8 km/h 81 % 0 mm 0.0 W/m2 CLR
01:22 -15.6 °C -17.2 °C 34682.8 hPa NW 38.8 km/h 38.8 km/h 81 % 0 mm 0.0 W/m2 CLR
01:27 -15.6 °C -17.3 °C 34682.8 hPa WNW 29.8 km/h 31.4 km/h 80 % 0 mm 0.0 W/m2 CLR
01:32 -15.6 °C -17.3 °C 34682.8 hPa WNW 38.8 km/h 38.8 km/h 80 % 0 mm 0.0 W/m2 CLR
01:37 -15.6 °C -17.3 °C 34682.8 hPa NW 29.8 km/h 29.8 km/h 80 % 0 mm 0.0 W/m2 CLR
01:42 -15.6 °C -17.3 °C 34693 hPa NW 29.8 km/h 29.8 km/h 80 % 0 mm 0.0 W/m2 CLR
01:47 -15.6 °C -17.3 °C 34693 hPa NW 31.1 km/h 31.1 km/h 80 % 0 mm 0.0 W/m2 CLR
01:52 -15.6 °C -17.3 °C 34693 hPa NW 38.8 km/h 38.8 km/h 80 % 0 mm 0.0 W/m2 CLR
01:57 -15.6 °C -17.3 °C 34693 hPa NNW 29.8 km/h 29.8 km/h 80 % 0 mm 0.0 W/m2 CLR
02:02 -15.6 °C -17.3 °C 34693 hPa NNW 29.8 km/h 29.8 km/h 80 % 0 mm 0.0 W/m2 CLR
02:07 -15.6 °C -17.3 °C 34693 hPa NW 20.9 km/h 20.9 km/h 80 % 0 mm 0.0 W/m2 CLR
02:12 -15.6 °C -17.3 °C 34693 hPa NW 32.8 km/h 32.8 km/h 81 % 0 mm 0.0 W/m2 CLR
02:17 -15.6 °C -17.3 °C 34693 hPa NW 32.8 km/h 32.8 km/h 81 % 0 mm 0.0 W/m2 CLR
02:22 -15.7 °C -17.3 °C 34693 hPa NW 25.9 km/h 25.9 km/h 81 % 0 mm 0.0 W/m2 CLR
02:27 -15.7 °C -17.3 °C 34693 hPa NW 32.8 km/h 32.8 km/h 81 % 0 mm 0.0 W/m2 CLR
02:32 -15.7 °C -17.3 °C 34693 hPa NW 41.7 km/h 41.7 km/h 81 % 0 mm 0.0 W/m2 CLR
02:37 -15.7 °C -17.3 °C 34693 hPa NW 23.8 km/h 23.8 km/h 81 % 0 mm 0.0 W/m2 CLR
02:42 -15.7 °C -17.3 °C 34693 hPa NW 26.9 km/h 26.9 km/h 81 % 0 mm 0.0 W/m2 CLR
02:47 -15.7 °C -17.3 °C 34693 hPa NW 29.8 km/h 29.8 km/h 81 % 0 mm 0.0 W/m2 CLR
02:52 -15.7 °C -17.4 °C 34693 hPa NW 28.5 km/h 28.5 km/h 81 % 0 mm 0.0 W/m2 CLR
02:57 -15.7 °C -17.3 °C 34693 hPa NW 20.9 km/h 20.9 km/h 81 % 0 mm 0.0 W/m2 CLR
03:02 -15.8 °C -17.4 °C 34693 hPa NW 31.1 km/h 31.1 km/h 81 % 0 mm 0.0 W/m2 CLR
03:07 -15.7 °C -17.3 °C 34693 hPa NW 20.9 km/h 20.9 km/h 81 % 0 mm 0.0 W/m2 CLR
03:12 -15.7 °C -17.3 °C 34693 hPa NW 29.8 km/h 29.8 km/h 81 % 0 mm 0.0 W/m2 CLR
03:17 -15.7 °C -17.4 °C 34693 hPa WNW 31.1 km/h 31.1 km/h 80 % 0 mm 0.0 W/m2 CLR
03:22 -15.7 °C -17.4 °C 34693 hPa WNW 29.8 km/h 29.8 km/h 80 % 0 mm 0.0 W/m2 CLR
03:27 -15.7 °C -17.4 °C 34693 hPa WNW 26.9 km/h 26.9 km/h 80 % 0 mm 0.0 W/m2 CLR
03:32 -15.8 °C -17.4 °C 34693 hPa NW 35.7 km/h 35.7 km/h 81 % 0 mm 0.0 W/m2 CLR
03:37 -15.8 °C -17.4 °C 34693 hPa NW 32.8 km/h 32.8 km/h 81 % 0 mm 0.0 W/m2 CLR
03:42 -15.7 °C -17.3 °C 34693 hPa NW 38.8 km/h 38.8 km/h 81 % 0 mm 0.0 W/m2 CLR
03:47 -15.7 °C -17.3 °C 34693 hPa NW 29.8 km/h 29.8 km/h 81 % 0 mm 0.0 W/m2 CLR
03:52 -15.7 °C -17.4 °C 34693 hPa NW 38.8 km/h 38.8 km/h 81 % 0 mm 0.0 W/m2 CLR
03:57 -15.8 °C -17.4 °C 34703.1 hPa NW 29.8 km/h 29.8 km/h 81 % 0 mm 0.0 W/m2 CLR
04:02 -15.7 °C -17.3 °C 34693 hPa NW 32.8 km/h 32.8 km/h 81 % 0 mm 0.0 W/m2 CLR
04:08 -15.7 °C -17.3 °C 34693 hPa NW 32.8 km/h 32.8 km/h 81 % 0 mm 0.0 W/m2 CLR
04:13 -15.7 °C -17.4 °C 34703.1 hPa NW 29.8 km/h 29.8 km/h 80 % 0 mm 0.0 W/m2 CLR
04:18 -15.7 °C -17.4 °C 34693 hPa NW 26.9 km/h 26.9 km/h 81 % 0 mm 0.0 W/m2 CLR
04:23 -15.7 °C -17.4 °C 34693 hPa NW 29.8 km/h 29.8 km/h 81 % 0 mm 0.0 W/m2 CLR
04:28 -15.8 °C -17.4 °C 34703.1 hPa NW 23.8 km/h 23.8 km/h 81 % 0 mm 0.0 W/m2 CLR
04:33 -15.8 °C -17.4 °C 34693 hPa NW 15 km/h 15 km/h 81 % 0 mm 0.0 W/m2 CLR
04:38 -15.8 °C -17.4 °C 34703.1 hPa NW 20.8 km/h 20.8 km/h 81 % 0 mm 0.0 W/m2 CLR
04:43 -15.8 °C -17.4 °C 34703.1 hPa NNW 29.8 km/h 29.8 km/h 81 % 0 mm 0.0 W/m2 CLR
04:48 -15.8 °C -17.4 °C 34703.1 hPa NW 26.9 km/h 26.9 km/h 81 % 0 mm 0.0 W/m2 CLR
04:53 -15.8 °C -17.4 °C 34693 hPa NW 29.8 km/h 29.8 km/h 81 % 0 mm 0.0 W/m2 CLR
04:58 -15.8 °C -17.4 °C 34693 hPa NW 35.7 km/h 35.7 km/h 81 % 0 mm 0.0 W/m2 CLR
05:03 -15.8 °C -17.4 °C 34693 hPa NW 26.9 km/h 26.9 km/h 81 % 0 mm 0.0 W/m2 CLR
05:08 -15.8 °C -17.4 °C 34693 hPa NW 23.8 km/h 23.8 km/h 81 % 0 mm 0.0 W/m2 CLR
05:13 -15.8 °C -17.5 °C 34693 hPa NW 20.9 km/h 20.9 km/h 80 % 0 mm 0.0 W/m2 CLR
05:18 -15.8 °C -17.6 °C 34682.8 hPa NW 20.8 km/h 20.8 km/h 80 % 0 mm 0.0 W/m2 CLR
05:23 -15.8 °C -17.6 °C 34682.8 hPa WNW 23.8 km/h 23.8 km/h 80 % 0 mm 0.0 W/m2 CLR
05:28 -15.8 °C -17.6 °C 34682.8 hPa WNW 15 km/h 15 km/h 80 % 0 mm 0.0 W/m2 CLR
05:33 -15.9 °C -17.6 °C 34682.8 hPa NW 23.8 km/h 23.8 km/h 80 % 0 mm 0.0 W/m2 CLR
05:38 -15.9 °C -17.6 °C 34682.8 hPa NW 33.6 km/h 33.6 km/h 80 % 0 mm 0.0 W/m2 CLR
05:43 -15.8 °C -17.6 °C 34682.8 hPa NW 32.8 km/h 32.8 km/h 80 % 0 mm 0.0 W/m2 CLR
05:48 -15.9 °C -17.6 °C 34682.8 hPa WNW 29.8 km/h 29.8 km/h 80 % 0 mm 0.0 W/m2 CLR
05:53 -15.9 °C -17.6 °C 34682.8 hPa WNW 38.8 km/h 38.8 km/h 80 % 0 mm 0.0 W/m2 CLR
05:58 -15.8 °C -17.6 °C 34682.8 hPa WNW 41.7 km/h 41.7 km/h 80 % 0 mm 0.0 W/m2 CLR
06:03 -15.8 °C -17.5 °C 34682.8 hPa NW 47.6 km/h 47.6 km/h 80 % 0 mm 0.0 W/m2 CLR
06:08 -15.8 °C -17.5 °C 34682.8 hPa NW 41.7 km/h 41.7 km/h 80 % 0 mm 0.0 W/m2 CLR
06:13 -15.8 °C -17.5 °C 34682.8 hPa NW 38.8 km/h 38.8 km/h 80 % 0 mm 0.0 W/m2 CLR
06:18 -15.8 °C -17.6 °C 34682.8 hPa NW 50.7 km/h 50.7 km/h 79 % 0 mm 0.0 W/m2 CLR
06:23 -15.8 °C -17.6 °C 34693 hPa NW 35.7 km/h 35.7 km/h 79 % 0 mm 0.0 W/m2 CLR
06:28 -15.8 °C -17.5 °C 34682.8 hPa NW 44.1 km/h 44.1 km/h 80 % 0 mm 0.0 W/m2 CLR
06:33 -15.8 °C -17.6 °C 34682.8 hPa WNW 38.8 km/h 38.8 km/h 79 % 0 mm 0.0 W/m2 CLR
06:38 -15.8 °C -17.6 °C 34682.8 hPa WNW 38.8 km/h 38.8 km/h 79 % 0 mm 0.0 W/m2 CLR
06:43 -15.8 °C -17.6 °C 34682.8 hPa WNW 38.8 km/h 38.8 km/h 80 % 0 mm 0.0 W/m2 CLR
06:48 -15.8 °C -17.6 °C 34682.8 hPa WNW 44.7 km/h 44.7 km/h 80 % 0 mm 0.0 W/m2 CLR
06:53 -15.8 °C -17.6 °C 34693 hPa WNW 47.6 km/h 47.6 km/h 80 % 0 mm 0.0 W/m2 CLR
06:58 -15.9 °C -17.6 °C 34682.8 hPa WNW 41.7 km/h 41.7 km/h 80 % 0 mm 0.0 W/m2 CLR
07:03 -15.9 °C -17.7 °C 34682.8 hPa WNW 32.8 km/h 32.8 km/h 80 % 0 mm 0.0 W/m2 CLR
07:08 -15.9 °C -17.7 °C 34693 hPa WNW 41.7 km/h 41.7 km/h 80 % 0 mm 0.0 W/m2 CLR
07:13 -15.9 °C -17.7 °C 34693 hPa WNW 35.7 km/h 35.7 km/h 80 % 0 mm 0.0 W/m2 CLR
07:18 -15.9 °C -17.7 °C 34693 hPa NW 41.7 km/h 41.7 km/h 80 % 0 mm 0.0 W/m2 CLR
07:23 -15.9 °C -17.7 °C 34693 hPa NW 41.7 km/h 41.7 km/h 80 % 0 mm 0.0 W/m2 CLR
07:28 -16 °C -17.8 °C 34693 hPa NW 38.8 km/h 38.8 km/h 79 % 0 mm 0.0 W/m2 CLR
07:33 -15.9 °C -17.7 °C 34703.1 hPa NW 44.7 km/h 44.7 km/h 79 % 0 mm 0.0 W/m2 CLR
07:38 -15.8 °C -17.7 °C 34703.1 hPa NNW 44.7 km/h 44.7 km/h 79 % 0 mm 0.0 W/m2 CLR
07:43 -15.9 °C -17.7 °C 34703.1 hPa NNW 35.7 km/h 35.7 km/h 79 % 0 mm 0.0 W/m2 CLR
07:48 -15.9 °C -17.7 °C 34716.7 hPa NNW 38.8 km/h 38.8 km/h 79 % 0 mm 0.0 W/m2 CLR
07:53 -15.9 °C -17.7 °C 34716.7 hPa NW 31.1 km/h 31.1 km/h 79 % 0 mm 0.0 W/m2 CLR
07:58 -15.9 °C -17.7 °C 34716.7 hPa NW 32.8 km/h 32.8 km/h 79 % 0 mm 0.0 W/m2 CLR
08:03 -15.8 °C -17.7 °C 34726.8 hPa NNW 44.7 km/h 44.7 km/h 79 % 0 mm 0.0 W/m2 CLR
08:08 -15.8 °C -17.6 °C 34726.8 hPa NW 38.8 km/h 38.8 km/h 79 % 0 mm 0.0 W/m2 CLR
08:13 -15.7 °C -17.6 °C 34726.8 hPa NW 47.6 km/h 47.6 km/h 79 % 0 mm 0.0 W/m2 CLR
08:18 -15.7 °C -17.7 °C 34726.8 hPa NW 64.7 km/h 64.7 km/h 78 % 0 mm 0.0 W/m2 CLR
08:23 -15.7 °C -17.6 °C 34726.8 hPa NW 50.7 km/h 50.7 km/h 78 % 0 mm 5.0 W/m2 OVC
08:28 -15.7 °C -17.6 °C 34726.8 hPa NW 53.6 km/h 53.6 km/h 79 % 0 mm 5.0 W/m2 BKN
08:33 -15.8 °C -17.6 °C 34726.8 hPa NW 36.2 km/h 36.2 km/h 79 % 0 mm 7.0 W/m2 BKN
08:38 -15.8 °C -17.6 °C 34726.8 hPa WNW 44.7 km/h 44.7 km/h 79 % 0 mm 11.0 W/m2 BKN
08:43 -15.8 °C -17.6 °C 34726.8 hPa WNW 53.6 km/h 53.6 km/h 79 % 0 mm 14.0 W/m2 BKN
08:48 -15.8 °C -17.6 °C 34726.8 hPa NW 38.8 km/h 38.8 km/h 79 % 0 mm 16.0 W/m2 BKN
08:53 -15.8 °C -17.6 °C 34726.8 hPa NW 38.8 km/h 38.8 km/h 79 % 0 mm 16.0 W/m2 BKN
08:58 -15.7 °C -17.6 °C 34726.8 hPa WNW 47.6 km/h 47.6 km/h 79 % 0 mm 21.0 W/m2 BKN
09:03 -15.7 °C -17.6 °C 34726.8 hPa WNW 41.7 km/h 41.7 km/h 79 % 0 mm 26.0 W/m2 BKN
09:08 -15.7 °C -17.6 °C 34726.8 hPa WNW 50.7 km/h 50.7 km/h 79 % 0 mm 26.0 W/m2 BKN
09:13 -15.7 °C -17.5 °C 34726.8 hPa WNW 53.6 km/h 53.6 km/h 79 % 0 mm 28.0 W/m2 BKN
09:18 -15.6 °C -17.4 °C 34726.8 hPa WNW 59.5 km/h 59.5 km/h 79 % 0 mm 26.0 W/m2 BKN
09:23 -15.6 °C -17.4 °C 34726.8 hPa WNW 35.7 km/h 35.7 km/h 79 % 0 mm 35.0 W/m2 BKN
09:29 -15.5 °C -17.4 °C 34726.8 hPa WNW 41.7 km/h 41.7 km/h 78 % 0 mm 97.0 W/m2 BKN
09:34 -15.4 °C -17.3 °C 34726.8 hPa WNW 72.6 km/h 72.6 km/h 78 % 0 mm 113.0 W/m2 BKN
09:39 -15.3 °C -17.3 °C 34740.4 hPa WNW 53.6 km/h 53.6 km/h 77 % 0 mm 84.0 W/m2 BKN
09:44 -15.3 °C -17.3 °C 34740.4 hPa NW 59.5 km/h 59.5 km/h 77 % 0 mm 163.0 W/m2 BKN
09:49 -15.2 °C -17.3 °C 34740.4 hPa NW 38.8 km/h 38.8 km/h 77 % 0 mm 148.0 W/m2 BKN
09:54 -15.2 °C -17.3 °C 34740.4 hPa NW 47.6 km/h 47.6 km/h 77 % 0 mm 116.0 W/m2 BKN
09:59 -15.2 °C -17.2 °C 34740.4 hPa WNW 38.8 km/h 38.8 km/h 77 % 0 mm 165.0 W/m2 BKN
10:04 -15.1 °C -17.3 °C 34740.4 hPa NW 53.6 km/h 53.6 km/h 76 % 0 mm 98.0 W/m2 BKN
10:14 -15.1 °C -17.2 °C 34740.4 hPa NW 47.6 km/h 47.6 km/h 76 % 0 mm 186.0 W/m2 BKN
10:19 -15 °C -17.3 °C 34740.4 hPa NW 56.6 km/h 56.6 km/h 75 % 0 mm 237.0 W/m2 SCT
10:24 -14.9 °C -17.2 °C 34740.4 hPa NW 62.6 km/h 62.6 km/h 75 % 0 mm 251.0 W/m2 SCT
10:29 -14.9 °C -17.2 °C 34740.4 hPa NW 62.6 km/h 62.6 km/h 75 % 0 mm 264.0 W/m2 SCT
10:34 -14.8 °C -17.1 °C 34740.4 hPa NW 44.7 km/h 44.7 km/h 75 % 0 mm 279.0 W/m2 SCT
10:39 -14.7 °C -17.1 °C 34740.4 hPa NW 59.5 km/h 59.5 km/h 74 % 0 mm 292.0 W/m2 SCT
10:44 -14.7 °C -17.1 °C 34740.4 hPa NW 50.7 km/h 50.7 km/h 73 % 0 mm 302.0 W/m2 SCT
10:49 -14.6 °C -17.2 °C 34740.4 hPa NW 68.6 km/h 68.6 km/h 72 % 0 mm 313.0 W/m2 FEW
10:54 -14.6 °C -17.1 °C 34740.4 hPa NW 50.7 km/h 50.7 km/h 72 % 0 mm 322.0 W/m2 FEW
10:59 -14.5 °C -17.2 °C 34740.4 hPa NW 62.6 km/h 62.6 km/h 71 % 0 mm 334.0 W/m2 FEW
11:04 -14.4 °C -17.1 °C 34740.4 hPa NW 51.8 km/h 51.8 km/h 71 % 0 mm 345.0 W/m2 FEW
11:09 -14.3 °C -17.3 °C 34740.4 hPa NNW 56.6 km/h 56.6 km/h 69 % 0 mm 357.0 W/m2 FEW
11:14 -14.3 °C -17.3 °C 34740.4 hPa NNW 50.7 km/h 50.7 km/h 68 % 0 mm 325.0 W/m2 FEW
11:19 -14.2 °C -17.3 °C 34740.4 hPa NW 56.6 km/h 56.6 km/h 67 % 0 mm 380.0 W/m2 FEW
11:24 -14.1 °C -17.3 °C 34726.8 hPa NW 62.6 km/h 62.6 km/h 67 % 0 mm 390.0 W/m2 FEW
11:29 -14 °C -17.3 °C 34726.8 hPa NNW 47.6 km/h 48.1 km/h 66 % 0 mm 383.0 W/m2 FEW
11:34 -14 °C -17.4 °C 34726.8 hPa NNW 71.5 km/h 71.5 km/h 65 % 0 mm 411.0 W/m2 FEW
11:39 -13.9 °C -17.3 °C 34726.8 hPa NW 59.5 km/h 59.5 km/h 65 % 0 mm 401.0 W/m2 FEW
11:44 -13.8 °C -17.3 °C 34716.7 hPa NNW 74.5 km/h 74.5 km/h 65 % 0 mm 406.0 W/m2 FEW
11:49 -13.9 °C -17.3 °C 34726.8 hPa NNW 89.3 km/h 89.3 km/h 65 % 0 mm 406.0 W/m2 FEW
11:54 -14.1 °C -17.3 °C 34716.7 hPa NW 83.4 km/h 83.4 km/h 66 % 0 mm 422.0 W/m2 CLR
11:59 -14 °C -17.2 °C 34716.7 hPa NW 59.5 km/h 59.5 km/h 67 % 0 mm 431.0 W/m2 CLR
12:04 -13.9 °C -17.3 °C 34716.7 hPa NW 83.4 km/h 83.4 km/h 66 % 0 mm 429.0 W/m2 CLR
12:09 -13.9 °C -17.1 °C 34703.1 hPa NW 59.5 km/h 59.5 km/h 67 % 0 mm 432.0 W/m2 CLR
12:14 -13.9 °C -17.3 °C 34703.1 hPa NW 80.5 km/h 80.5 km/h 65 % 0 mm 436.0 W/m2 CLR
12:19 -13.9 °C -17.4 °C 34703.1 hPa NW 89.3 km/h 89.3 km/h 64 % 0 mm 441.0 W/m2 CLR
12:24 -13.8 °C -17.4 °C 34703.1 hPa NW 68.6 km/h 68.6 km/h 63 % 0 mm 445.0 W/m2 CLR
12:29 -13.7 °C -17.6 °C 34703.1 hPa NW 80.5 km/h 80.5 km/h 62 % 0 mm 450.0 W/m2 CLR
12:34 -13.7 °C -17.6 °C 34716.7 hPa NW 82.9 km/h 82.9 km/h 61 % 0 mm 452.0 W/m2 CLR
12:39 -13.7 °C -17.6 °C 34716.7 hPa NNW 65.5 km/h 65.5 km/h 61 % 0 mm 454.0 W/m2 CLR
12:44 -13.7 °C -17.4 °C 34716.7 hPa NNW 59.5 km/h 59.5 km/h 62 % 0 mm 457.0 W/m2 CLR
12:49 -13.6 °C -17.6 °C 34716.7 hPa NW 71.5 km/h 71.5 km/h 60 % 0 mm 459.0 W/m2 CLR
12:54 -13.6 °C -17.6 °C 34716.7 hPa NW 50.7 km/h 50.7 km/h 60 % 0 mm 462.0 W/m2 CLR
12:59 -13.6 °C -17.7 °C 34716.7 hPa NNW 77.4 km/h 77.4 km/h 59 % 0 mm 462.0 W/m2 CLR
13:04 -13.6 °C -17.7 °C 34716.7 hPa NNW 80.5 km/h 80.5 km/h 59 % 0 mm 462.0 W/m2 CLR
13:09 -13.6 °C -17.9 °C 34703.1 hPa NNW 86.4 km/h 86.4 km/h 58 % 0 mm 464.0 W/m2 CLR
13:14 -13.4 °C -17.7 °C 34703.1 hPa NNW 56.6 km/h 56.6 km/h 58 % 0 mm 464.0 W/m2 CLR
13:19 -13.3 °C -17.8 °C 34716.7 hPa NNW 83.4 km/h 83.4 km/h 57 % 0 mm 464.0 W/m2 CLR
13:24 -13.3 °C -17.9 °C 34703.1 hPa NNW 62.6 km/h 62.6 km/h 56 % 0 mm 462.0 W/m2 CLR
13:29 -13.2 °C -17.8 °C 34703.1 hPa NNW 41.7 km/h 41.7 km/h 56 % 0 mm 461.0 W/m2 CLR
13:34 -13.2 °C -18.1 °C 34703.1 hPa NNW 74.5 km/h 74.5 km/h 54 % 0 mm 462.0 W/m2 CLR
13:39 -13.4 °C -18.2 °C 34703.1 hPa NNW 74.5 km/h 74.5 km/h 54 % 0 mm 455.0 W/m2 CLR
13:44 -13.4 °C -17.9 °C 34693 hPa NNW 65.5 km/h 65.5 km/h 56 % 0 mm 454.0 W/m2 CLR
13:49 -13.4 °C -17.9 °C 34693 hPa NNW 64.7 km/h 64.7 km/h 57 % 0 mm 454.0 W/m2 CLR
13:54 -13.4 °C -17.9 °C 34703.1 hPa NNW 89.3 km/h 89.3 km/h 56 % 0 mm 450.0 W/m2 CLR
13:59 -13.4 °C -17.9 °C 34703.1 hPa NNW 68.6 km/h 68.6 km/h 56 % 0 mm 448.0 W/m2 CLR
14:04 -13.3 °C -17.6 °C 34703.1 hPa NNW 51.8 km/h 51.8 km/h 58 % 0 mm 443.0 W/m2 CLR
14:09 -13.3 °C -17.7 °C 34703.1 hPa NNW 71.5 km/h 71.5 km/h 57 % 0 mm 443.0 W/m2 CLR
14:14 -13.4 °C -17.8 °C 34703.1 hPa NNW 77.4 km/h 77.4 km/h 57 % 0 mm 436.0 W/m2 CLR
14:19 -13.3 °C -17.7 °C 34693 hPa NNW 77.4 km/h 77.4 km/h 57 % 0 mm 427.0 W/m2 CLR
14:24 -13.3 °C -18 °C 34693 hPa NNW 77.4 km/h 77.4 km/h 55 % 0 mm 429.0 W/m2 CLR
14:29 -13.3 °C -17.9 °C 34703.1 hPa NNW 74.5 km/h 74.5 km/h 56 % 0 mm 420.0 W/m2 CLR
14:34 -13.4 °C -17.8 °C 34693 hPa NNW 71.5 km/h 71.5 km/h 57 % 0 mm 410.0 W/m2 CLR
14:39 -13.3 °C -18.1 °C 34703.1 hPa NNW 80.5 km/h 80.5 km/h 55 % 0 mm 399.0 W/m2 CLR
14:44 -13.4 °C -17.9 °C 34703.1 hPa NW 92.4 km/h 92.4 km/h 56 % 0 mm 394.0 W/m2 CLR
14:49 -13.4 °C -17.8 °C 34693 hPa NW 68.6 km/h 68.6 km/h 57 % 0 mm 390.0 W/m2 CLR
14:54 -13.3 °C -18 °C 34693 hPa NNW 62.1 km/h 62.1 km/h 55 % 0 mm 381.0 W/m2 CLR
14:59 -13.2 °C -17.9 °C 34693 hPa NNW 65.5 km/h 65.5 km/h 55 % 0 mm 369.0 W/m2 CLR
15:04 -13.3 °C -17.9 °C 34703.1 hPa NW 68.6 km/h 68.6 km/h 56 % 0 mm 364.0 W/m2 CLR
15:09 -13.4 °C -17.8 °C 34703.1 hPa NW 69.8 km/h 69.8 km/h 57 % 0 mm 355.0 W/m2 CLR
15:14 -13.3 °C -17.8 °C 34693 hPa NW 69.8 km/h 69.8 km/h 57 % 0 mm 350.0 W/m2 CLR
15:19 -13.3 °C -17.7 °C 34693 hPa NW 69.8 km/h 69.8 km/h 57 % 0 mm 338.0 W/m2 CLR
15:24 -13.3 °C -17.9 °C 34693 hPa NNW 89.3 km/h 89.3 km/h 56 % 0 mm 327.0 W/m2 CLR
15:29 -13.3 °C -17.9 °C 34703.1 hPa NW 68.6 km/h 68.6 km/h 56 % 0 mm 318.0 W/m2 CLR
15:34 -13.2 °C -17.8 °C 34693 hPa NW 62.6 km/h 62.6 km/h 56 % 0 mm 309.0 W/m2 CLR
15:39 -13.3 °C -18 °C 34703.1 hPa NW 68.6 km/h 68.6 km/h 55 % 0 mm 297.0 W/m2 CLR
15:44 -13.3 °C -18.2 °C 34703.1 hPa NNW 77.4 km/h 77.4 km/h 54 % 0 mm 292.0 W/m2 CLR
15:49 -13.3 °C -18.3 °C 34693 hPa NNW 74.5 km/h 74.5 km/h 53 % 0 mm 276.0 W/m2 CLR
15:54 -13.3 °C -18.2 °C 34703.1 hPa NW 69.8 km/h 69.8 km/h 54 % 0 mm 264.0 W/m2 CLR
15:59 -13.3 °C -18.2 °C 34703.1 hPa NW 68.6 km/h 68.6 km/h 54 % 0 mm 246.0 W/m2 CLR
16:04 -13.4 °C -18.2 °C 34703.1 hPa NNW 62.1 km/h 62.1 km/h 54 % 0 mm 234.0 W/m2 CLR
16:09 -13.4 °C -18.2 °C 34703.1 hPa NW 47.6 km/h 47.6 km/h 54 % 0 mm 221.0 W/m2 CLR
16:14 -13.4 °C -18.2 °C 34703.1 hPa NNW 77.7 km/h 77.7 km/h 54 % 0 mm 209.0 W/m2 CLR
16:20 -13.4 °C -18.1 °C 34703.1 hPa NNW 50.7 km/h 50.7 km/h 55 % 0 mm 193.0 W/m2 CLR
16:25 -13.4 °C -18.3 °C 34703.1 hPa NW 86.4 km/h 86.4 km/h 54 % 0 mm 174.0 W/m2 CLR
16:30 -13.4 °C -18.2 °C 34703.1 hPa NNW 65.5 km/h 65.5 km/h 55 % 0 mm 163.0 W/m2 CLR
16:35 -13.4 °C -18 °C 34703.1 hPa NW 68.6 km/h 68.6 km/h 56 % 0 mm 148.0 W/m2 CLR
16:40 -13.6 °C -18.3 °C 34703.1 hPa NW 74.5 km/h 74.5 km/h 55 % 0 mm 134.0 W/m2 CLR
16:45 -13.6 °C -18.3 °C 34716.7 hPa NW 83.4 km/h 83.4 km/h 55 % 0 mm 118.0 W/m2 CLR
16:50 -13.7 °C -18.2 °C 34703.1 hPa NNW 77.7 km/h 77.7 km/h 56 % 0 mm 104.0 W/m2 CLR
16:55 -13.7 °C -18.2 °C 34703.1 hPa NNW 56.6 km/h 56.6 km/h 56 % 0 mm 93.0 W/m2 CLR
17:00 -13.7 °C -18.3 °C 34703.1 hPa NNW 77.7 km/h 77.7 km/h 56 % 0 mm 79.0 W/m2 CLR
17:05 -13.7 °C -18.3 °C 34703.1 hPa NNW 53.6 km/h 53.6 km/h 56 % 0 mm 60.0 W/m2 CLR
17:10 -13.8 °C -18.3 °C 34716.7 hPa NNW 77.4 km/h 77.4 km/h 56 % 0 mm 53.0 W/m2 OVC
17:15 -13.8 °C -18.2 °C 34703.1 hPa NNW 68.6 km/h 68.6 km/h 57 % 0 mm 40.0 W/m2 OVC
17:20 -13.8 °C -18.3 °C 34703.1 hPa NW 74.5 km/h 74.5 km/h 57 % 0 mm 33.0 W/m2 OVC
17:25 -13.9 °C -18.3 °C 34703.1 hPa NW 59.5 km/h 59.5 km/h 57 % 0 mm 23.0 W/m2 OVC
17:30 -13.9 °C -18.2 °C 34716.7 hPa NW 50.7 km/h 50.7 km/h 58 % 0 mm 14.0 W/m2 OVC
17:35 -14 °C -18.3 °C 34716.7 hPa NW 74.5 km/h 74.5 km/h 58 % 0 mm 12.0 W/m2 OVC
17:40 -14.1 °C -18.2 °C 34716.7 hPa NW 62.6 km/h 62.6 km/h 59 % 0 mm 11.0 W/m2 OVC
17:45 -14.1 °C -17.9 °C 34716.7 hPa NW 59.5 km/h 59.5 km/h 62 % 0 mm 9.0 W/m2 OVC
17:50 -14.2 °C -17.8 °C 34716.7 hPa NW 68.6 km/h 68.6 km/h 63 % 0 mm 5.0 W/m2 OVC
17:55 -14.3 °C -17.9 °C 34716.7 hPa NW 47.6 km/h 47.6 km/h 63 % 0 mm 5.0 W/m2 OVC
18:00 -14.3 °C -17.8 °C 34726.8 hPa NW 59.5 km/h 59.5 km/h 64 % 0 mm 0.0 W/m2 CLR
18:05 -14.3 °C -17.9 °C 34726.8 hPa NW 67.3 km/h 67.3 km/h 64 % 0 mm 0.0 W/m2 CLR
18:10 -14.4 °C -17.8 °C 34726.8 hPa NW 62.6 km/h 62.6 km/h 65 % 0 mm 0.0 W/m2 CLR
18:15 -14.4 °C -17.8 °C 34726.8 hPa NW 65.5 km/h 65.5 km/h 65 % 0 mm 0.0 W/m2 CLR
18:20 -14.5 °C -17.8 °C 34726.8 hPa NW 74.5 km/h 74.5 km/h 66 % 0 mm 0.0 W/m2 CLR
18:25 -14.6 °C -17.7 °C 34726.8 hPa NW 50.7 km/h 50.7 km/h 67 % 0 mm 0.0 W/m2 CLR
18:30 -14.6 °C -17.6 °C 34740.4 hPa NW 53.6 km/h 53.6 km/h 68 % 0 mm 0.0 W/m2 CLR
18:35 -14.7 °C -17.6 °C 34740.4 hPa NW 59.5 km/h 59.5 km/h 69 % 0 mm 0.0 W/m2 CLR
18:40 -14.7 °C -17.6 °C 34740.4 hPa NW 44.7 km/h 44.7 km/h 69 % 0 mm 0.0 W/m2 CLR
18:45 -14.7 °C -17.6 °C 34740.4 hPa NW 56.6 km/h 56.6 km/h 69 % 0 mm 0.0 W/m2 CLR
18:50 -14.7 °C -17.6 °C 34740.4 hPa NW 50.7 km/h 50.7 km/h 69 % 0 mm 0.0 W/m2 CLR
18:55 -14.8 °C -17.7 °C 34750.5 hPa NW 56.6 km/h 56.6 km/h 69 % 0 mm 0.0 W/m2 CLR
19:00 -14.8 °C -17.6 °C 34750.5 hPa NW 62.6 km/h 62.6 km/h 70 % 0 mm 0.0 W/m2 CLR
19:05 -14.8 °C -17.6 °C 34750.5 hPa NW 56.6 km/h 56.6 km/h 70 % 0 mm 0.0 W/m2 CLR
19:10 -14.8 °C -17.6 °C 34750.5 hPa NW 53.6 km/h 53.6 km/h 70 % 0 mm 0.0 W/m2 CLR
19:15 -14.8 °C -17.6 °C 34750.5 hPa NW 59.5 km/h 59.5 km/h 71 % 0 mm 0.0 W/m2 CLR
19:20 -14.8 °C -17.6 °C 34750.5 hPa NW 62.6 km/h 62.6 km/h 71 % 0 mm 0.0 W/m2 CLR
19:25 -14.9 °C -17.4 °C 34750.5 hPa NW 59.5 km/h 59.5 km/h 72 % 0 mm 0.0 W/m2 CLR
19:30 -14.9 °C -17.4 °C 34750.5 hPa NW 50.7 km/h 50.7 km/h 72 % 0 mm 0.0 W/m2 CLR
19:35 -14.9 °C -17.4 °C 34750.5 hPa NW 59.5 km/h 59.5 km/h 73 % 0 mm 0.0 W/m2 CLR
19:40 -14.9 °C -17.4 °C 34750.5 hPa NW 56.6 km/h 56.6 km/h 73 % 0 mm 0.0 W/m2 CLR
19:45 -14.9 °C -17.4 °C 34760.7 hPa NW 68.6 km/h 68.6 km/h 73 % 0 mm 0.0 W/m2 CLR
19:50 -14.9 °C -17.3 °C 34750.5 hPa NW 68.6 km/h 68.6 km/h 74 % 0 mm 0.0 W/m2 CLR
19:55 -15 °C -17.4 °C 34750.5 hPa NW 62.6 km/h 62.6 km/h 74 % 0 mm 0.0 W/m2 CLR
20:00 -15 °C -17.4 °C 34760.7 hPa NW 50.7 km/h 52.8 km/h 74 % 0 mm 0.0 W/m2 CLR
20:05 -15.1 °C -17.4 °C 34760.7 hPa NW 54.4 km/h 54.4 km/h 74 % 0 mm 0.0 W/m2 CLR
20:10 -15.1 °C -17.3 °C 34760.7 hPa NW 59.5 km/h 59.5 km/h 75 % 0 mm 0.0 W/m2 CLR
20:15 -15.1 °C -17.3 °C 34774.2 hPa NW 62.6 km/h 62.6 km/h 75 % 0 mm 0.0 W/m2 CLR
20:20 -15.1 °C -17.4 °C 34774.2 hPa NW 56.6 km/h 56.6 km/h 75 % 0 mm 0.0 W/m2 CLR
20:25 -15.2 °C -17.4 °C 34774.2 hPa NW 46.7 km/h 46.7 km/h 75 % 0 mm 0.0 W/m2 CLR
20:30 -15.2 °C -17.3 °C 34774.2 hPa NW 65.5 km/h 65.5 km/h 76 % 0 mm 0.0 W/m2 CLR
20:35 -15.2 °C -17.4 °C 34774.2 hPa NW 53.6 km/h 53.6 km/h 76 % 0 mm 0.0 W/m2 CLR
20:40 -15.2 °C -17.4 °C 34774.2 hPa NW 68.6 km/h 68.6 km/h 76 % 0 mm 0.0 W/m2 CLR
20:45 -15.2 °C -17.4 °C 34774.2 hPa NW 62.6 km/h 62.6 km/h 76 % 0 mm 0.0 W/m2 CLR
20:50 -15.2 °C -17.3 °C 34774.2 hPa NW 69.8 km/h 69.8 km/h 76 % 0 mm 0.0 W/m2 CLR
20:55 -15.2 °C -17.4 °C 34774.2 hPa NW 53.6 km/h 53.6 km/h 76 % 0 mm 0.0 W/m2 CLR
21:00 -15.2 °C -17.4 °C 34784.4 hPa NW 67.3 km/h 67.3 km/h 76 % 0 mm 0.0 W/m2 CLR
21:05 -15.3 °C -17.4 °C 34774.2 hPa NW 53.6 km/h 53.6 km/h 76 % 0 mm 0.0 W/m2 CLR
21:10 -15.3 °C -17.5 °C 34784.4 hPa NW 65.5 km/h 65.5 km/h 76 % 0 mm 0.0 W/m2 CLR
21:15 -15.3 °C -17.5 °C 34784.4 hPa NW 53.6 km/h 53.6 km/h 76 % 0 mm 0.0 W/m2 CLR
21:20 -15.4 °C -17.4 °C 34784.4 hPa NW 65.5 km/h 65.5 km/h 77 % 0 mm 0.0 W/m2 CLR
21:25 -15.4 °C -17.6 °C 34784.4 hPa NW 47.6 km/h 47.6 km/h 76 % 0 mm 0.0 W/m2 CLR
21:30 -15.4 °C -17.4 °C 34784.4 hPa NW 47.6 km/h 47.6 km/h 77 % 0 mm 0.0 W/m2 CLR
21:35 -15.4 °C -17.5 °C 34784.4 hPa NW 35.7 km/h 35.7 km/h 77 % 0 mm 0.0 W/m2 CLR
21:40 -15.4 °C -17.4 °C 34784.4 hPa NW 56.6 km/h 56.6 km/h 77 % 0 mm 0.0 W/m2 CLR
21:45 -15.4 °C -17.6 °C 34784.4 hPa NW 41.7 km/h 41.7 km/h 76 % 0 mm 0.0 W/m2 CLR
21:50 -15.5 °C -17.6 °C 34784.4 hPa NW 38.8 km/h 38.8 km/h 77 % 0 mm 0.0 W/m2 CLR
21:55 -15.5 °C -17.6 °C 34784.4 hPa NW 47.6 km/h 47.6 km/h 77 % 0 mm 0.0 W/m2 CLR
22:00 -15.5 °C -17.6 °C 34784.4 hPa WNW 41.7 km/h 41.7 km/h 77 % 0 mm 0.0 W/m2 CLR
22:05 -15.6 °C -17.6 °C 34784.4 hPa WNW 47.6 km/h 47.6 km/h 77 % 0 mm 0.0 W/m2 CLR
22:10 -15.5 °C -17.6 °C 34784.4 hPa NW 44.7 km/h 44.7 km/h 77 % 0 mm 0.0 W/m2 CLR
22:15 -15.5 °C -17.7 °C 34784.4 hPa NW 44.7 km/h 44.7 km/h 76 % 0 mm 0.0 W/m2 CLR
22:20 -15.5 °C -17.6 °C 34784.4 hPa NW 50.7 km/h 50.7 km/h 76 % 0 mm 0.0 W/m2 CLR
22:25 -15.5 °C -17.6 °C 34784.4 hPa WNW 50.7 km/h 50.7 km/h 76 % 0 mm 0.0 W/m2 CLR
22:31 -15.4 °C -17.6 °C 34784.4 hPa NW 47.6 km/h 47.6 km/h 76 % 0 mm 0.0 W/m2 CLR
22:36 -15.4 °C -17.7 °C 34784.4 hPa NW 62.6 km/h 62.6 km/h 75 % 0 mm 0.0 W/m2 CLR
22:41 -15.4 °C -17.7 °C 34784.4 hPa NW 68.6 km/h 68.6 km/h 75 % 0 mm 0.0 W/m2 CLR
22:46 -15.4 °C -17.6 °C 34774.2 hPa NW 47.6 km/h 47.6 km/h 76 % 0 mm 0.0 W/m2 CLR
22:50 -15.4 °C -17.6 °C 34784.4 hPa NW 68.6 km/h 68.6 km/h 76 % 0 mm 0.0 W/m2 CLR
22:56 -15.4 °C -17.6 °C 34784.4 hPa NW 62.6 km/h 62.6 km/h 76 % 0 mm 0.0 W/m2 CLR
23:00 -15.4 °C -17.6 °C 34784.4 hPa NW 50.7 km/h 50.7 km/h 76 % 0 mm 0.0 W/m2 CLR
23:05 -15.4 °C -17.6 °C 34784.4 hPa NW 53.6 km/h 53.6 km/h 76 % 0 mm 0.0 W/m2 CLR
23:11 -15.4 °C -17.4 °C 34784.4 hPa NW 56.6 km/h 56.6 km/h 77 % 0 mm 0.0 W/m2 CLR
23:16 -15.4 °C -17.4 °C 34784.4 hPa NW 47.6 km/h 47.6 km/h 77 % 0 mm 0.0 W/m2 CLR
23:21 -15.4 °C -17.4 °C 34774.2 hPa NW 53.6 km/h 53.6 km/h 77 % 0 mm 0.0 W/m2 CLR
23:26 -15.4 °C -17.4 °C 34784.4 hPa NW 68.6 km/h 68.6 km/h 77 % 0 mm 0.0 W/m2 CLR
23:31 -15.4 °C -17.4 °C 34784.4 hPa NW 56.6 km/h 56.6 km/h 77 % 0 mm 0.0 W/m2 CLR
23:36 -15.4 °C -17.4 °C 34774.2 hPa NW 65.5 km/h 65.5 km/h 77 % 0 mm 0.0 W/m2 CLR
23:41 -15.4 °C -17.4 °C 34774.2 hPa NW 62.6 km/h 62.6 km/h 77 % 0 mm 0.0 W/m2 CLR
23:46 -15.4 °C -17.3 °C 34774.2 hPa NW 62.6 km/h 62.6 km/h 78 % 0 mm 0.0 W/m2 CLR
23:51 -15.4 °C -17.3 °C 34774.2 hPa NW 53.6 km/h 53.6 km/h 78 % 0 mm 0.0 W/m2 CLR
23:56 -15.4 °C -17.3 °C 34774.2 hPa NW 56.6 km/h 56.6 km/h 78 % 0 mm 0.0 W/m2 CLR
Lo Temps de Massalio
Compliments of Weather Underground - 1.25 mb